sensor_id;sensor_type;location;lat;lon;timestamp;P1;durP1;ratioP1;P2;durP2;ratioP2
42200;SDS011;27869;51.442;7.540;2023-03-15T00:00:35;10.90;;;1.60;;
42200;SDS011;27869;51.442;7.540;2023-03-15T00:03:02;9.88;;;1.70;;
42200;SDS011;27869;51.442;7.540;2023-03-15T00:05:29;12.43;;;1.70;;
42200;SDS011;27869;51.442;7.540;2023-03-15T00:07:57;12.25;;;1.63;;
42200;SDS011;27869;51.442;7.540;2023-03-15T00:10:24;16.00;;;2.25;;
42200;SDS011;27869;51.442;7.540;2023-03-15T00:12:51;9.10;;;1.88;;
42200;SDS011;27869;51.442;7.540;2023-03-15T00:15:19;18.00;;;1.85;;
42200;SDS011;27869;51.442;7.540;2023-03-15T00:17:47;13.13;;;1.50;;
42200;SDS011;27869;51.442;7.540;2023-03-15T00:20:14;12.00;;;1.40;;
42200;SDS011;27869;51.442;7.540;2023-03-15T00:22:43;8.90;;;1.60;;
42200;SDS011;27869;51.442;7.540;2023-03-15T00:25:09;13.50;;;1.70;;
42200;SDS011;27869;51.442;7.540;2023-03-15T00:27:36;11.40;;;1.77;;
42200;SDS011;27869;51.442;7.540;2023-03-15T00:30:03;15.00;;;2.17;;
42200;SDS011;27869;51.442;7.540;2023-03-15T00:32:33;12.90;;;1.55;;
42200;SDS011;27869;51.442;7.540;2023-03-15T00:34:59;8.93;;;1.48;;
42200;SDS011;27869;51.442;7.540;2023-03-15T00:37:26;10.05;;;1.83;;
42200;SDS011;27869;51.442;7.540;2023-03-15T00:39:53;12.43;;;1.48;;
42200;SDS011;27869;51.442;7.540;2023-03-15T00:42:20;12.60;;;1.75;;
42200;SDS011;27869;51.442;7.540;2023-03-15T00:44:51;12.65;;;1.25;;
42200;SDS011;27869;51.442;7.540;2023-03-15T00:47:19;9.75;;;1.73;;
42200;SDS011;27869;51.442;7.540;2023-03-15T00:49:48;15.02;;;1.70;;
42200;SDS011;27869;51.442;7.540;2023-03-15T00:52:15;9.90;;;1.83;;
42200;SDS011;27869;51.442;7.540;2023-03-15T00:54:42;12.35;;;2.35;;
42200;SDS011;27869;51.442;7.540;2023-03-15T00:57:10;10.02;;;2.05;;
42200;SDS011;27869;51.442;7.540;2023-03-15T00:59:36;13.40;;;2.35;;
42200;SDS011;27869;51.442;7.540;2023-03-15T01:02:04;13.55;;;2.30;;
42200;SDS011;27869;51.442;7.540;2023-03-15T01:04:31;14.90;;;2.53;;
42200;SDS011;27869;51.442;7.540;2023-03-15T01:06:59;13.43;;;2.35;;
42200;SDS011;27869;51.442;7.540;2023-03-15T01:09:26;12.77;;;2.40;;
42200;SDS011;27869;51.442;7.540;2023-03-15T01:11:54;15.65;;;2.40;;
42200;SDS011;27869;51.442;7.540;2023-03-15T01:14:21;10.32;;;2.40;;
42200;SDS011;27869;51.442;7.540;2023-03-15T01:16:48;11.73;;;2.45;;
42200;SDS011;27869;51.442;7.540;2023-03-15T01:19:15;15.30;;;3.10;;
42200;SDS011;27869;51.442;7.540;2023-03-15T01:21:43;12.35;;;2.67;;
42200;SDS011;27869;51.442;7.540;2023-03-15T01:24:13;13.82;;;2.53;;
42200;SDS011;27869;51.442;7.540;2023-03-15T01:26:40;10.02;;;2.85;;
42200;SDS011;27869;51.442;7.540;2023-03-15T01:29:07;12.98;;;2.85;;
42200;SDS011;27869;51.442;7.540;2023-03-15T01:31:34;13.60;;;2.95;;
42200;SDS011;27869;51.442;7.540;2023-03-15T01:34:01;13.93;;;3.03;;
42200;SDS011;27869;51.442;7.540;2023-03-15T01:36:28;11.77;;;2.92;;
42200;SDS011;27869;51.442;7.540;2023-03-15T01:38:54;12.90;;;2.75;;
42200;SDS011;27869;51.442;7.540;2023-03-15T01:41:23;12.30;;;2.63;;
42200;SDS011;27869;51.442;7.540;2023-03-15T01:46:24;13.48;;;3.78;;
42200;SDS011;27869;51.442;7.540;2023-03-15T01:48:54;11.18;;;3.38;;
42200;SDS011;27869;51.442;7.540;2023-03-15T01:51:27;12.35;;;3.45;;
42200;SDS011;27869;51.442;7.540;2023-03-15T01:53:59;13.52;;;3.28;;
42200;SDS011;27869;51.442;7.540;2023-03-15T01:56:32;11.02;;;3.17;;
42200;SDS011;27869;51.442;7.540;2023-03-15T01:59:00;12.85;;;3.22;;
42200;SDS011;27869;51.442;7.540;2023-03-15T02:01:29;12.85;;;3.30;;
42200;SDS011;27869;51.442;7.540;2023-03-15T02:03:58;11.90;;;2.97;;
42200;SDS011;27869;51.442;7.540;2023-03-15T02:06:30;12.25;;;3.42;;
42200;SDS011;27869;51.442;7.540;2023-03-15T02:08:59;6.97;;;2.05;;
42200;SDS011;27869;51.442;7.540;2023-03-15T02:11:30;11.27;;;2.42;;
42200;SDS011;27869;51.442;7.540;2023-03-15T02:13:59;8.02;;;2.28;;
42200;SDS011;27869;51.442;7.540;2023-03-15T02:16:28;8.07;;;1.67;;
42200;SDS011;27869;51.442;7.540;2023-03-15T02:18:55;7.18;;;1.70;;
42200;SDS011;27869;51.442;7.540;2023-03-15T02:21:25;8.18;;;1.88;;
42200;SDS011;27869;51.442;7.540;2023-03-15T02:24:00;7.25;;;1.70;;
42200;SDS011;27869;51.442;7.540;2023-03-15T02:26:39;5.97;;;1.30;;
42200;SDS011;27869;51.442;7.540;2023-03-15T02:29:12;4.05;;;1.35;;
42200;SDS011;27869;51.442;7.540;2023-03-15T02:31:39;8.23;;;1.35;;
42200;SDS011;27869;51.442;7.540;2023-03-15T02:34:06;4.90;;;1.45;;
42200;SDS011;27869;51.442;7.540;2023-03-15T02:36:35;6.32;;;1.48;;
42200;SDS011;27869;51.442;7.540;2023-03-15T02:39:12;8.02;;;1.50;;
42200;SDS011;27869;51.442;7.540;2023-03-15T02:41:41;4.82;;;1.40;;
42200;SDS011;27869;51.442;7.540;2023-03-15T02:44:13;3.80;;;1.23;;
42200;SDS011;27869;51.442;7.540;2023-03-15T02:46:45;8.32;;;1.83;;
42200;SDS011;27869;51.442;7.540;2023-03-15T02:49:14;4.65;;;1.42;;
42200;SDS011;27869;51.442;7.540;2023-03-15T02:51:42;5.55;;;1.90;;
42200;SDS011;27869;51.442;7.540;2023-03-15T02:54:09;6.47;;;1.63;;
42200;SDS011;27869;51.442;7.540;2023-03-15T02:56:36;6.20;;;1.80;;
42200;SDS011;27869;51.442;7.540;2023-03-15T02:59:02;7.40;;;2.22;;
42200;SDS011;27869;51.442;7.540;2023-03-15T03:01:31;11.77;;;2.42;;
42200;SDS011;27869;51.442;7.540;2023-03-15T03:04:01;8.05;;;2.28;;
42200;SDS011;27869;51.442;7.540;2023-03-15T03:06:28;7.88;;;1.90;;
42200;SDS011;27869;51.442;7.540;2023-03-15T03:08:55;6.63;;;2.00;;
42200;SDS011;27869;51.442;7.540;2023-03-15T03:11:22;9.18;;;2.70;;
42200;SDS011;27869;51.442;7.540;2023-03-15T03:13:49;8.63;;;2.60;;
42200;SDS011;27869;51.442;7.540;2023-03-15T03:16:16;9.80;;;2.70;;
42200;SDS011;27869;51.442;7.540;2023-03-15T03:18:44;8.40;;;2.58;;
42200;SDS011;27869;51.442;7.540;2023-03-15T03:21:11;7.97;;;2.25;;
42200;SDS011;27869;51.442;7.540;2023-03-15T03:23:38;10.98;;;2.78;;
42200;SDS011;27869;51.442;7.540;2023-03-15T03:26:10;14.05;;;3.50;;
42200;SDS011;27869;51.442;7.540;2023-03-15T03:28:41;11.90;;;3.17;;
42200;SDS011;27869;51.442;7.540;2023-03-15T03:31:14;9.80;;;3.45;;
42200;SDS011;27869;51.442;7.540;2023-03-15T03:33:43;11.55;;;3.53;;
42200;SDS011;27869;51.442;7.540;2023-03-15T03:36:11;12.25;;;3.90;;
42200;SDS011;27869;51.442;7.540;2023-03-15T03:38:38;12.85;;;3.67;;
42200;SDS011;27869;51.442;7.540;2023-03-15T03:41:06;12.98;;;4.57;;
42200;SDS011;27869;51.442;7.540;2023-03-15T03:43:32;10.15;;;3.65;;
42200;SDS011;27869;51.442;7.540;2023-03-15T03:45:59;11.68;;;3.75;;
42200;SDS011;27869;51.442;7.540;2023-03-15T03:48:26;12.52;;;3.85;;
42200;SDS011;27869;51.442;7.540;2023-03-15T03:50:54;11.02;;;4.00;;
42200;SDS011;27869;51.442;7.540;2023-03-15T03:53:21;11.10;;;3.60;;
42200;SDS011;27869;51.442;7.540;2023-03-15T03:55:48;10.07;;;3.38;;
42200;SDS011;27869;51.442;7.540;2023-03-15T03:58:16;11.15;;;3.60;;
42200;SDS011;27869;51.442;7.540;2023-03-15T04:00:42;10.52;;;2.83;;
42200;SDS011;27869;51.442;7.540;2023-03-15T04:03:09;10.93;;;3.78;;
42200;SDS011;27869;51.442;7.540;2023-03-15T04:05:36;10.23;;;3.33;;
42200;SDS011;27869;51.442;7.540;2023-03-15T04:08:05;10.30;;;3.30;;
42200;SDS011;27869;51.442;7.540;2023-03-15T04:10:32;11.10;;;3.40;;
42200;SDS011;27869;51.442;7.540;2023-03-15T04:12:59;10.32;;;3.45;;
42200;SDS011;27869;51.442;7.540;2023-03-15T04:15:27;12.80;;;3.53;;
42200;SDS011;27869;51.442;7.540;2023-03-15T04:17:55;11.57;;;3.45;;
42200;SDS011;27869;51.442;7.540;2023-03-15T04:20:22;10.07;;;3.38;;
42200;SDS011;27869;51.442;7.540;2023-03-15T04:22:50;11.75;;;3.72;;
42200;SDS011;27869;51.442;7.540;2023-03-15T04:25:18;11.90;;;3.70;;
42200;SDS011;27869;51.442;7.540;2023-03-15T04:27:46;12.38;;;3.85;;
42200;SDS011;27869;51.442;7.540;2023-03-15T04:30:22;10.85;;;3.67;;
42200;SDS011;27869;51.442;7.540;2023-03-15T04:32:51;14.85;;;4.43;;
42200;SDS011;27869;51.442;7.540;2023-03-15T04:35:23;11.77;;;4.25;;
42200;SDS011;27869;51.442;7.540;2023-03-15T04:37:50;12.13;;;3.97;;
42200;SDS011;27869;51.442;7.540;2023-03-15T04:40:18;11.70;;;4.07;;
42200;SDS011;27869;51.442;7.540;2023-03-15T04:42:48;12.13;;;4.28;;
42200;SDS011;27869;51.442;7.540;2023-03-15T04:45:14;12.18;;;4.28;;
42200;SDS011;27869;51.442;7.540;2023-03-15T04:47:41;13.02;;;4.20;;
42200;SDS011;27869;51.442;7.540;2023-03-15T04:50:09;14.48;;;4.38;;
42200;SDS011;27869;51.442;7.540;2023-03-15T04:52:37;13.20;;;5.07;;
42200;SDS011;27869;51.442;7.540;2023-03-15T04:55:04;12.02;;;5.13;;
42200;SDS011;27869;51.442;7.540;2023-03-15T04:57:33;12.73;;;5.22;;
42200;SDS011;27869;51.442;7.540;2023-03-15T04:59:59;12.95;;;4.43;;
42200;SDS011;27869;51.442;7.540;2023-03-15T05:02:28;15.55;;;4.90;;
42200;SDS011;27869;51.442;7.540;2023-03-15T05:04:55;13.02;;;4.43;;
42200;SDS011;27869;51.442;7.540;2023-03-15T05:07:21;14.95;;;4.55;;
42200;SDS011;27869;51.442;7.540;2023-03-15T05:09:48;13.98;;;4.57;;
42200;SDS011;27869;51.442;7.540;2023-03-15T05:12:15;12.57;;;4.78;;
42200;SDS011;27869;51.442;7.540;2023-03-15T05:14:43;12.30;;;4.13;;
42200;SDS011;27869;51.442;7.540;2023-03-15T05:17:10;12.73;;;3.85;;
42200;SDS011;27869;51.442;7.540;2023-03-15T05:19:39;12.55;;;3.97;;
42200;SDS011;27869;51.442;7.540;2023-03-15T05:22:06;10.88;;;3.60;;
42200;SDS011;27869;51.442;7.540;2023-03-15T05:24:33;12.43;;;3.92;;
42200;SDS011;27869;51.442;7.540;2023-03-15T05:27:00;12.50;;;4.40;;
42200;SDS011;27869;51.442;7.540;2023-03-15T05:29:28;13.10;;;4.32;;
42200;SDS011;27869;51.442;7.540;2023-03-15T05:31:57;16.50;;;4.47;;
42200;SDS011;27869;51.442;7.540;2023-03-15T05:34:24;13.30;;;4.20;;
42200;SDS011;27869;51.442;7.540;2023-03-15T05:36:51;13.65;;;3.90;;
42200;SDS011;27869;51.442;7.540;2023-03-15T05:39:18;14.30;;;3.88;;
42200;SDS011;27869;51.442;7.540;2023-03-15T05:41:46;12.70;;;4.13;;
42200;SDS011;27869;51.442;7.540;2023-03-15T05:44:13;11.88;;;3.67;;
42200;SDS011;27869;51.442;7.540;2023-03-15T05:46:40;12.57;;;3.90;;
42200;SDS011;27869;51.442;7.540;2023-03-15T05:49:09;11.88;;;3.80;;
42200;SDS011;27869;51.442;7.540;2023-03-15T05:51:36;12.57;;;3.92;;
42200;SDS011;27869;51.442;7.540;2023-03-15T05:54:03;10.98;;;3.50;;
42200;SDS011;27869;51.442;7.540;2023-03-15T05:56:30;19.48;;;4.40;;
42200;SDS011;27869;51.442;7.540;2023-03-15T05:58:57;10.82;;;3.70;;
42200;SDS011;27869;51.442;7.540;2023-03-15T06:01:26;10.40;;;3.03;;
42200;SDS011;27869;51.442;7.540;2023-03-15T06:03:53;10.38;;;3.33;;
42200;SDS011;27869;51.442;7.540;2023-03-15T06:06:22;11.80;;;3.17;;
42200;SDS011;27869;51.442;7.540;2023-03-15T06:08:48;11.13;;;3.55;;
42200;SDS011;27869;51.442;7.540;2023-03-15T06:11:15;11.07;;;3.45;;
42200;SDS011;27869;51.442;7.540;2023-03-15T06:13:42;10.98;;;3.97;;
42200;SDS011;27869;51.442;7.540;2023-03-15T06:16:09;12.25;;;4.07;;
42200;SDS011;27869;51.442;7.540;2023-03-15T06:18:36;12.48;;;4.03;;
42200;SDS011;27869;51.442;7.540;2023-03-15T06:21:03;12.65;;;3.75;;
42200;SDS011;27869;51.442;7.540;2023-03-15T06:23:31;13.82;;;3.90;;
42200;SDS011;27869;51.442;7.540;2023-03-15T06:25:58;10.70;;;4.13;;
42200;SDS011;27869;51.442;7.540;2023-03-15T06:28:25;14.18;;;3.97;;
42200;SDS011;27869;51.442;7.540;2023-03-15T06:30:51;13.98;;;4.25;;
42200;SDS011;27869;51.442;7.540;2023-03-15T06:33:18;12.50;;;4.18;;
42200;SDS011;27869;51.442;7.540;2023-03-15T06:35:45;12.82;;;4.32;;
42200;SDS011;27869;51.442;7.540;2023-03-15T06:38:12;13.63;;;5.72;;
42200;SDS011;27869;51.442;7.540;2023-03-15T06:40:40;12.93;;;5.47;;
42200;SDS011;27869;51.442;7.540;2023-03-15T06:43:08;15.60;;;5.63;;
42200;SDS011;27869;51.442;7.540;2023-03-15T06:45:42;16.10;;;6.25;;
42200;SDS011;27869;51.442;7.540;2023-03-15T06:48:09;18.05;;;7.38;;
42200;SDS011;27869;51.442;7.540;2023-03-15T06:50:36;16.58;;;5.63;;
42200;SDS011;27869;51.442;7.540;2023-03-15T06:53:02;16.33;;;6.50;;
42200;SDS011;27869;51.442;7.540;2023-03-15T06:55:29;15.98;;;5.60;;
42200;SDS011;27869;51.442;7.540;2023-03-15T06:57:58;17.13;;;5.40;;
42200;SDS011;27869;51.442;7.540;2023-03-15T07:00:25;16.15;;;6.25;;
42200;SDS011;27869;51.442;7.540;2023-03-15T07:02:52;17.55;;;5.78;;
42200;SDS011;27869;51.442;7.540;2023-03-15T07:05:19;16.27;;;6.05;;
42200;SDS011;27869;51.442;7.540;2023-03-15T07:07:46;16.17;;;5.63;;
42200;SDS011;27869;51.442;7.540;2023-03-15T07:10:12;14.68;;;5.90;;
42200;SDS011;27869;51.442;7.540;2023-03-15T07:12:39;18.02;;;5.63;;
42200;SDS011;27869;51.442;7.540;2023-03-15T07:15:08;15.52;;;5.90;;
42200;SDS011;27869;51.442;7.540;2023-03-15T07:20:03;15.23;;;6.03;;
42200;SDS011;27869;51.442;7.540;2023-03-15T07:22:30;17.20;;;6.45;;
42200;SDS011;27869;51.442;7.540;2023-03-15T07:24:57;16.73;;;6.35;;
42200;SDS011;27869;51.442;7.540;2023-03-15T07:27:24;20.30;;;7.97;;
42200;SDS011;27869;51.442;7.540;2023-03-15T07:29:51;16.23;;;6.57;;
42200;SDS011;27869;51.442;7.540;2023-03-15T07:32:21;27.13;;;10.45;;
42200;SDS011;27869;51.442;7.540;2023-03-15T07:34:48;17.27;;;7.10;;
42200;SDS011;27869;51.442;7.540;2023-03-15T07:37:14;22.95;;;8.02;;
42200;SDS011;27869;51.442;7.540;2023-03-15T07:39:42;19.88;;;7.15;;
42200;SDS011;27869;51.442;7.540;2023-03-15T07:42:09;71.93;;;21.65;;
42200;SDS011;27869;51.442;7.540;2023-03-15T07:44:36;19.77;;;7.65;;
42200;SDS011;27869;51.442;7.540;2023-03-15T07:47:03;17.38;;;6.82;;
42200;SDS011;27869;51.442;7.540;2023-03-15T07:49:31;17.73;;;7.32;;
42200;SDS011;27869;51.442;7.540;2023-03-15T07:51:58;16.60;;;6.25;;
42200;SDS011;27869;51.442;7.540;2023-03-15T07:54:25;21.77;;;6.88;;
42200;SDS011;27869;51.442;7.540;2023-03-15T07:56:53;18.60;;;6.60;;
42200;SDS011;27869;51.442;7.540;2023-03-15T07:59:20;16.27;;;6.22;;
42200;SDS011;27869;51.442;7.540;2023-03-15T08:01:47;16.85;;;6.20;;
42200;SDS011;27869;51.442;7.540;2023-03-15T08:04:14;17.77;;;6.70;;
42200;SDS011;27869;51.442;7.540;2023-03-15T08:06:42;19.40;;;6.47;;
42200;SDS011;27869;51.442;7.540;2023-03-15T08:09:09;15.82;;;6.18;;
42200;SDS011;27869;51.442;7.540;2023-03-15T08:11:36;16.42;;;6.65;;
42200;SDS011;27869;51.442;7.540;2023-03-15T08:14:02;18.73;;;7.80;;
42200;SDS011;27869;51.442;7.540;2023-03-15T08:16:30;16.65;;;6.82;;
42200;SDS011;27869;51.442;7.540;2023-03-15T08:18:56;18.10;;;5.78;;
42200;SDS011;27869;51.442;7.540;2023-03-15T08:21:23;15.48;;;5.85;;
42200;SDS011;27869;51.442;7.540;2023-03-15T08:23:52;16.15;;;6.47;;
42200;SDS011;27869;51.442;7.540;2023-03-15T08:26:18;14.88;;;4.95;;
42200;SDS011;27869;51.442;7.540;2023-03-15T08:28:45;13.45;;;3.85;;
42200;SDS011;27869;51.442;7.540;2023-03-15T08:31:12;14.77;;;3.70;;
42200;SDS011;27869;51.442;7.540;2023-03-15T08:33:39;10.07;;;3.38;;
42200;SDS011;27869;51.442;7.540;2023-03-15T08:36:06;10.98;;;3.10;;
42200;SDS011;27869;51.442;7.540;2023-03-15T08:38:34;13.88;;;4.47;;
42200;SDS011;27869;51.442;7.540;2023-03-15T08:41:02;15.63;;;3.83;;
42200;SDS011;27869;51.442;7.540;2023-03-15T08:43:29;22.15;;;4.68;;
42200;SDS011;27869;51.442;7.540;2023-03-15T08:45:56;15.45;;;4.20;;
42200;SDS011;27869;51.442;7.540;2023-03-15T08:48:23;10.00;;;2.10;;
42200;SDS011;27869;51.442;7.540;2023-03-15T08:50:50;10.15;;;2.60;;
42200;SDS011;27869;51.442;7.540;2023-03-15T08:53:17;13.07;;;2.70;;
42200;SDS011;27869;51.442;7.540;2023-03-15T08:55:43;10.15;;;2.58;;
42200;SDS011;27869;51.442;7.540;2023-03-15T08:58:12;11.88;;;2.53;;
42200;SDS011;27869;51.442;7.540;2023-03-15T09:00:39;12.00;;;2.60;;
42200;SDS011;27869;51.442;7.540;2023-03-15T09:03:05;10.32;;;2.35;;
42200;SDS011;27869;51.442;7.540;2023-03-15T09:05:32;12.40;;;2.25;;
42200;SDS011;27869;51.442;7.540;2023-03-15T09:07:59;10.13;;;2.25;;
42200;SDS011;27869;51.442;7.540;2023-03-15T09:10:26;12.00;;;2.78;;
42200;SDS011;27869;51.442;7.540;2023-03-15T09:12:53;9.85;;;2.25;;
42200;SDS011;27869;51.442;7.540;2023-03-15T09:15:21;12.02;;;3.15;;
42200;SDS011;27869;51.442;7.540;2023-03-15T09:17:48;17.48;;;3.08;;
42200;SDS011;27869;51.442;7.540;2023-03-15T09:20:16;15.25;;;4.43;;
42200;SDS011;27869;51.442;7.540;2023-03-15T09:22:48;11.50;;;2.97;;
42200;SDS011;27869;51.442;7.540;2023-03-15T09:25:16;10.20;;;2.70;;
42200;SDS011;27869;51.442;7.540;2023-03-15T09:27:44;12.00;;;3.13;;
42200;SDS011;27869;51.442;7.540;2023-03-15T09:30:11;12.73;;;2.65;;
42200;SDS011;27869;51.442;7.540;2023-03-15T09:32:40;12.10;;;2.45;;
42200;SDS011;27869;51.442;7.540;2023-03-15T09:35:09;15.55;;;3.28;;
42200;SDS011;27869;51.442;7.540;2023-03-15T09:37:38;9.75;;;2.20;;
42200;SDS011;27869;51.442;7.540;2023-03-15T09:40:07;10.70;;;2.33;;
42200;SDS011;27869;51.442;7.540;2023-03-15T09:42:45;12.15;;;2.67;;
42200;SDS011;27869;51.442;7.540;2023-03-15T09:45:23;10.80;;;2.22;;
42200;SDS011;27869;51.442;7.540;2023-03-15T09:47:58;14.25;;;2.30;;
42200;SDS011;27869;51.442;7.540;2023-03-15T09:50:30;11.20;;;2.00;;
42200;SDS011;27869;51.442;7.540;2023-03-15T09:53:01;11.10;;;2.05;;
42200;SDS011;27869;51.442;7.540;2023-03-15T09:55:34;14.10;;;2.00;;
42200;SDS011;27869;51.442;7.540;2023-03-15T09:58:02;12.77;;;2.67;;
42200;SDS011;27869;51.442;7.540;2023-03-15T10:00:32;12.57;;;2.20;;
42200;SDS011;27869;51.442;7.540;2023-03-15T10:03:04;12.50;;;2.20;;
42200;SDS011;27869;51.442;7.540;2023-03-15T10:05:36;10.93;;;2.42;;
42200;SDS011;27869;51.442;7.540;2023-03-15T10:08:09;13.45;;;2.22;;
42200;SDS011;27869;51.442;7.540;2023-03-15T10:10:38;12.55;;;2.67;;
42200;SDS011;27869;51.442;7.540;2023-03-15T10:13:21;13.40;;;2.40;;
42200;SDS011;27869;51.442;7.540;2023-03-15T10:15:58;13.90;;;3.70;;
42200;SDS011;27869;51.442;7.540;2023-03-15T10:18:37;10.13;;;2.65;;
42200;SDS011;27869;51.442;7.540;2023-03-15T10:21:15;14.52;;;2.70;;
42200;SDS011;27869;51.442;7.540;2023-03-15T10:23:55;10.25;;;1.63;;
42200;SDS011;27869;51.442;7.540;2023-03-15T10:26:23;11.30;;;2.22;;
42200;SDS011;27869;51.442;7.540;2023-03-15T10:28:56;12.52;;;1.70;;
42200;SDS011;27869;51.442;7.540;2023-03-15T10:31:24;14.15;;;2.22;;
42200;SDS011;27869;51.442;7.540;2023-03-15T10:33:58;9.55;;;2.30;;
42200;SDS011;27869;51.442;7.540;2023-03-15T10:36:25;9.15;;;2.00;;
42200;SDS011;27869;51.442;7.540;2023-03-15T10:38:52;14.43;;;2.63;;
42200;SDS011;27869;51.442;7.540;2023-03-15T10:41:26;12.68;;;1.90;;
42200;SDS011;27869;51.442;7.540;2023-03-15T10:43:56;9.20;;;1.63;;
42200;SDS011;27869;51.442;7.540;2023-03-15T10:46:26;13.20;;;1.92;;
42200;SDS011;27869;51.442;7.540;2023-03-15T10:48:55;14.77;;;2.40;;
42200;SDS011;27869;51.442;7.540;2023-03-15T10:51:26;11.48;;;1.90;;
42200;SDS011;27869;51.442;7.540;2023-03-15T10:53:55;13.80;;;1.90;;
42200;SDS011;27869;51.442;7.540;2023-03-15T10:56:25;12.63;;;2.13;;
42200;SDS011;27869;51.442;7.540;2023-03-15T10:58:54;11.95;;;2.38;;
42200;SDS011;27869;51.442;7.540;2023-03-15T11:01:22;13.02;;;2.28;;
42200;SDS011;27869;51.442;7.540;2023-03-15T11:04:01;11.70;;;2.30;;
42200;SDS011;27869;51.442;7.540;2023-03-15T11:06:41;11.80;;;2.22;;
42200;SDS011;27869;51.442;7.540;2023-03-15T11:09:11;12.52;;;2.40;;
42200;SDS011;27869;51.442;7.540;2023-03-15T11:11:53;12.70;;;2.45;;
42200;SDS011;27869;51.442;7.540;2023-03-15T11:14:23;13.48;;;2.33;;
42200;SDS011;27869;51.442;7.540;2023-03-15T11:16:52;8.93;;;2.17;;
42200;SDS011;27869;51.442;7.540;2023-03-15T11:19:21;9.63;;;2.03;;
42200;SDS011;27869;51.442;7.540;2023-03-15T11:21:53;11.98;;;2.92;;
42200;SDS011;27869;51.442;7.540;2023-03-15T11:24:24;10.45;;;2.47;;
42200;SDS011;27869;51.442;7.540;2023-03-15T11:26:53;10.93;;;2.10;;
42200;SDS011;27869;51.442;7.540;2023-03-15T11:29:22;14.10;;;2.70;;
42200;SDS011;27869;51.442;7.540;2023-03-15T11:31:52;9.38;;;2.03;;
42200;SDS011;27869;51.442;7.540;2023-03-15T11:34:25;10.85;;;2.22;;
42200;SDS011;27869;51.442;7.540;2023-03-15T11:37:03;10.45;;;2.25;;
42200;SDS011;27869;51.442;7.540;2023-03-15T11:39:37;13.15;;;2.53;;
42200;SDS011;27869;51.442;7.540;2023-03-15T11:42:09;11.35;;;2.40;;
42200;SDS011;27869;51.442;7.540;2023-03-15T11:44:42;10.25;;;2.20;;
42200;SDS011;27869;51.442;7.540;2023-03-15T11:47:13;12.82;;;2.33;;
42200;SDS011;27869;51.442;7.540;2023-03-15T11:49:49;14.88;;;2.55;;
42200;SDS011;27869;51.442;7.540;2023-03-15T11:52:19;11.48;;;1.75;;
42200;SDS011;27869;51.442;7.540;2023-03-15T11:54:48;10.40;;;1.80;;
42200;SDS011;27869;51.442;7.540;2023-03-15T11:57:35;9.10;;;1.73;;
42200;SDS011;27869;51.442;7.540;2023-03-15T12:00:20;10.20;;;2.13;;
42200;SDS011;27869;51.442;7.540;2023-03-15T12:03:27;10.80;;;2.03;;
42200;SDS011;27869;51.442;7.540;2023-03-15T12:06:00;10.43;;;1.80;;
42200;SDS011;27869;51.442;7.540;2023-03-15T12:08:41;11.80;;;1.98;;
42200;SDS011;27869;51.442;7.540;2023-03-15T12:11:10;9.27;;;1.77;;
42200;SDS011;27869;51.442;7.540;2023-03-15T12:13:37;10.30;;;2.00;;
42200;SDS011;27869;51.442;7.540;2023-03-15T12:16:16;10.07;;;1.60;;
42200;SDS011;27869;51.442;7.540;2023-03-15T12:18:47;9.50;;;1.80;;
42200;SDS011;27869;51.442;7.540;2023-03-15T12:21:19;8.85;;;1.80;;
42200;SDS011;27869;51.442;7.540;2023-03-15T12:23:56;10.77;;;1.98;;
42200;SDS011;27869;51.442;7.540;2023-03-15T12:26:31;11.68;;;1.98;;
42200;SDS011;27869;51.442;7.540;2023-03-15T12:29:10;9.63;;;1.88;;
42200;SDS011;27869;51.442;7.540;2023-03-15T12:31:45;9.10;;;1.90;;
42200;SDS011;27869;51.442;7.540;2023-03-15T12:34:24;7.90;;;1.42;;
42200;SDS011;27869;51.442;7.540;2023-03-15T12:36:55;5.97;;;1.60;;
42200;SDS011;27869;51.442;7.540;2023-03-15T12:39:43;6.68;;;1.30;;
42200;SDS011;27869;51.442;7.540;2023-03-15T12:45:30;7.05;;;1.52;;
42200;SDS011;27869;51.442;7.540;2023-03-15T12:48:17;8.05;;;1.30;;
42200;SDS011;27869;51.442;7.540;2023-03-15T12:50:53;13.43;;;2.60;;
42200;SDS011;27869;51.442;7.540;2023-03-15T12:53:22;8.75;;;1.88;;
42200;SDS011;27869;51.442;7.540;2023-03-15T12:55:56;11.30;;;2.83;;
42200;SDS011;27869;51.442;7.540;2023-03-15T12:58:38;8.10;;;1.42;;
42200;SDS011;27869;51.442;7.540;2023-03-15T13:01:08;10.82;;;2.50;;
42200;SDS011;27869;51.442;7.540;2023-03-15T13:03:40;12.13;;;2.38;;
42200;SDS011;27869;51.442;7.540;2023-03-15T13:06:10;6.28;;;1.45;;
42200;SDS011;27869;51.442;7.540;2023-03-15T13:08:57;9.23;;;1.92;;
42200;SDS011;27869;51.442;7.540;2023-03-15T13:11:34;11.45;;;2.30;;
42200;SDS011;27869;51.442;7.540;2023-03-15T13:14:19;10.82;;;2.65;;
42200;SDS011;27869;51.442;7.540;2023-03-15T13:16:59;7.68;;;1.77;;
42200;SDS011;27869;51.442;7.540;2023-03-15T13:19:32;6.35;;;1.55;;
42200;SDS011;27869;51.442;7.540;2023-03-15T13:22:08;11.07;;;1.83;;
42200;SDS011;27869;51.442;7.540;2023-03-15T13:24:43;8.20;;;1.65;;
42200;SDS011;27869;51.442;7.540;2023-03-15T13:27:20;6.68;;;1.55;;
42200;SDS011;27869;51.442;7.540;2023-03-15T13:29:59;12.00;;;1.60;;
42200;SDS011;27869;51.442;7.540;2023-03-15T13:32:28;9.35;;;1.77;;
42200;SDS011;27869;51.442;7.540;2023-03-15T13:34:55;10.48;;;2.00;;
42200;SDS011;27869;51.442;7.540;2023-03-15T13:37:23;9.90;;;1.75;;
42200;SDS011;27869;51.442;7.540;2023-03-15T13:39:52;7.13;;;1.45;;
42200;SDS011;27869;51.442;7.540;2023-03-15T13:42:23;7.97;;;1.63;;
42200;SDS011;27869;51.442;7.540;2023-03-15T13:45:05;7.20;;;1.42;;
42200;SDS011;27869;51.442;7.540;2023-03-15T13:47:38;5.82;;;1.42;;
42200;SDS011;27869;51.442;7.540;2023-03-15T13:50:05;9.52;;;1.60;;
42200;SDS011;27869;51.442;7.540;2023-03-15T13:52:33;10.98;;;2.15;;
42200;SDS011;27869;51.442;7.540;2023-03-15T13:55:01;9.38;;;1.63;;
42200;SDS011;27869;51.442;7.540;2023-03-15T13:57:30;11.00;;;2.25;;
42200;SDS011;27869;51.442;7.540;2023-03-15T13:59:58;9.02;;;1.77;;
42200;SDS011;27869;51.442;7.540;2023-03-15T14:02:35;9.38;;;1.60;;
42200;SDS011;27869;51.442;7.540;2023-03-15T14:05:12;8.95;;;1.85;;
42200;SDS011;27869;51.442;7.540;2023-03-15T14:07:40;6.25;;;1.23;;
42200;SDS011;27869;51.442;7.540;2023-03-15T14:10:20;10.10;;;1.40;;
42200;SDS011;27869;51.442;7.540;2023-03-15T14:12:52;9.30;;;1.60;;
42200;SDS011;27869;51.442;7.540;2023-03-15T14:15:20;9.80;;;1.45;;
42200;SDS011;27869;51.442;7.540;2023-03-15T14:17:58;7.32;;;1.65;;
42200;SDS011;27869;51.442;7.540;2023-03-15T14:22:58;9.00;;;1.40;;
42200;SDS011;27869;51.442;7.540;2023-03-15T14:27:55;8.88;;;1.65;;
42200;SDS011;27869;51.442;7.540;2023-03-15T14:30:25;7.22;;;1.20;;
42200;SDS011;27869;51.442;7.540;2023-03-15T14:32:54;7.95;;;1.70;;
42200;SDS011;27869;51.442;7.540;2023-03-15T14:35:23;24.05;;;6.68;;
42200;SDS011;27869;51.442;7.540;2023-03-15T14:38:00;14.45;;;2.90;;
42200;SDS011;27869;51.442;7.540;2023-03-15T14:40:33;9.90;;;2.22;;
42200;SDS011;27869;51.442;7.540;2023-03-15T14:43:03;6.32;;;1.05;;
42200;SDS011;27869;51.442;7.540;2023-03-15T14:45:31;4.43;;;1.13;;
42200;SDS011;27869;51.442;7.540;2023-03-15T14:48:00;10.25;;;1.27;;
42200;SDS011;27869;51.442;7.540;2023-03-15T14:50:30;4.40;;;1.10;;
42200;SDS011;27869;51.442;7.540;2023-03-15T14:53:00;8.68;;;1.83;;
42200;SDS011;27869;51.442;7.540;2023-03-15T14:55:29;4.88;;;1.05;;
42200;SDS011;27869;51.442;7.540;2023-03-15T14:57:58;5.63;;;1.10;;
42200;SDS011;27869;51.442;7.540;2023-03-15T15:00:27;7.30;;;1.20;;
42200;SDS011;27869;51.442;7.540;2023-03-15T15:02:55;8.15;;;1.58;;
42200;SDS011;27869;51.442;7.540;2023-03-15T15:05:23;8.85;;;1.40;;